This is the latest recevied weather packets stored in our database for station/object EA5GTE-12. If no packets are shown the sender has not sent any weather packets the latest 10 day(s).
| Time | Temp. | Humidity | Pressure | Rain* | Wind** | Luminosity | Snow |
|---|---|---|---|---|---|---|---|
| 1787694795 | 21.67° C | 47% | 937.7 hPa | - | - | - | - |
| 1787693895 | 21.67° C | 46% | 937.8 hPa | - | - | - | - |
| 1787692995 | 21.11° C | 49% | 937.5 hPa | - | - | - | - |
| 1787692095 | 22.78° C | 43% | 937.5 hPa | - | - | - | - |
| 1787691195 | 21.11° C | 49% | 937.6 hPa | - | - | - | - |
| 1787690295 | 22.78° C | 42% | 937.3 hPa | - | - | - | - |
| 1787689395 | 22.78° C | 42% | 937.1 hPa | - | - | - | - |
| 1787688495 | 23.33° C | 40% | 936.9 hPa | - | - | - | - |
| 1787687595 | 24.44° C | 38% | 936.6 hPa | - | - | - | - |
| 1787686695 | 24.44° C | 38% | 936.3 hPa | - | - | - | - |
| 1787685795 | 25° C | 35% | 936.2 hPa | - | - | - | - |
| 1787684895 | 25.56° C | 33% | 936 hPa | - | - | - | - |
| 1787683995 | 26.11° C | 31% | 935.8 hPa | - | - | - | - |
| 1787683094 | 27.22° C | 29% | 935.7 hPa | - | - | - | - |
| 1787682194 | 27.78° C | 28% | 935.6 hPa | - | - | - | - |
| 1787681294 | 31.11° C | 23% | 935.5 hPa | - | - | - | - |
| 1787680394 | 33.33° C | 20% | 935.4 hPa | - | - | - | - |
| 1787679494 | 34.44° C | 19% | 935.5 hPa | - | - | - | - |
| 1787678594 | 35° C | 18% | 935.5 hPa | - | - | - | - |
| 1787677734 | 36.11° C | 17% | 935.4 hPa | - | - | - | - |
| 1787677694 | 36.11° C | 17% | 935.4 hPa | - | - | - | - |
| 1787676794 | 34.44° C | 19% | 935.6 hPa | - | - | - | - |
| 1787675894 | 36.67° C | 16% | 935.5 hPa | - | - | - | - |
| 1787674095 | 36.67° C | 17% | 935.6 hPa | - | - | - | - |
| 1787673195 | 37.78° C | 16% | 935.5 hPa | - | - | - | - |
* Rain since midnight (hover to see other rain measurements)
** Current wind speed in m/s (hover to see current wind gust speed)